createdAt,value
2023-05-18T00:02:04.057Z,20.70
2023-05-18T00:04:33.238Z,20.70
2023-05-18T00:07:03.548Z,20.70
2023-05-18T00:09:31.428Z,20.60
2023-05-18T00:11:59.219Z,20.60
2023-05-18T00:14:26.318Z,20.60
2023-05-18T00:16:54.763Z,20.60
2023-05-18T00:19:24.040Z,20.60
2023-05-18T00:21:52.584Z,20.50
2023-05-18T00:24:19.478Z,20.50
2023-05-18T00:26:48.188Z,20.50
2023-05-18T00:29:15.878Z,20.50
2023-05-18T00:31:45.090Z,20.50
2023-05-18T00:34:13.824Z,20.40
2023-05-18T00:36:41.247Z,20.40
2023-05-18T00:39:09.672Z,20.40
2023-05-18T00:41:36.884Z,20.40
2023-05-18T00:44:04.819Z,20.40
2023-05-18T00:46:32.064Z,20.40
2023-05-18T00:48:59.274Z,20.30
2023-05-18T00:51:26.363Z,20.30
2023-05-18T00:53:55.001Z,20.30
2023-05-18T00:56:26.133Z,20.30
2023-05-18T00:58:55.751Z,20.30
2023-05-18T01:01:30.703Z,20.30
2023-05-18T01:04:01.978Z,20.20
2023-05-18T01:06:41.051Z,20.20
2023-05-18T01:09:10.493Z,20.20
2023-05-18T01:12:12.934Z,20.20
2023-05-18T01:15:08.990Z,20.20
2023-05-18T01:17:50.340Z,20.10
2023-05-18T01:20:23.266Z,20.10
2023-05-18T01:23:10.282Z,20.10
2023-05-18T01:25:48.603Z,20.10
2023-05-18T01:28:20.034Z,20.10
2023-05-18T01:30:47.697Z,20.00
2023-05-18T01:33:14.822Z,20.00
2023-05-18T01:35:41.785Z,20.00
2023-05-18T01:38:08.521Z,20.00
2023-05-18T01:41:11.357Z,20.00
2023-05-18T01:43:45.837Z,20.00
2023-05-18T01:46:15.796Z,20.00
2023-05-18T01:48:48.482Z,19.90
2023-05-18T01:51:20.501Z,19.90
2023-05-18T01:54:00.311Z,19.90
2023-05-18T01:56:28.160Z,19.90
2023-05-18T01:58:55.122Z,19.90
2023-05-18T02:01:23.961Z,19.90
2023-05-18T02:03:51.534Z,19.90
2023-05-18T02:06:18.380Z,19.80
2023-05-18T02:08:45.384Z,19.90
2023-05-18T02:11:12.799Z,19.90
2023-05-18T02:13:40.575Z,19.90
2023-05-18T02:16:07.850Z,19.80
2023-05-18T02:18:36.261Z,19.80
2023-05-18T02:21:04.109Z,19.80
2023-05-18T02:23:31.810Z,19.80
2023-05-18T02:25:59.014Z,19.80
2023-05-18T02:28:26.029Z,19.80
2023-05-18T02:30:52.864Z,19.80
2023-05-18T02:33:19.717Z,19.70
2023-05-18T02:35:46.542Z,19.70
2023-05-18T02:38:13.496Z,19.70
2023-05-18T02:40:40.299Z,19.70
2023-05-18T02:43:07.089Z,19.70
2023-05-18T02:45:34.189Z,19.70
2023-05-18T02:48:01.387Z,19.70
2023-05-18T02:50:28.764Z,19.60
2023-05-18T02:52:56.399Z,19.60
2023-05-18T02:55:23.401Z,19.60
2023-05-18T02:58:04.392Z,19.60
2023-05-18T03:00:54.367Z,19.60
2023-05-18T03:03:23.863Z,19.60
2023-05-18T03:05:54.151Z,19.60
2023-05-18T03:08:22.857Z,19.60
2023-05-18T03:10:50.260Z,19.50
2023-05-18T03:13:17.474Z,19.50
2023-05-18T03:15:47.118Z,19.50
2023-05-18T03:18:14.348Z,19.50
2023-05-18T03:20:41.126Z,19.50
2023-05-18T03:23:07.891Z,19.50
2023-05-18T03:25:37.403Z,19.50
2023-05-18T03:28:05.675Z,19.50
2023-05-18T03:30:35.641Z,19.50
2023-05-18T03:33:03.936Z,19.40
2023-05-18T03:35:31.176Z,19.50
2023-05-18T03:37:58.103Z,19.50
2023-05-18T03:40:25.069Z,19.50
2023-05-18T03:42:52.052Z,19.40
2023-05-18T03:45:19.099Z,19.40
2023-05-18T03:47:46.213Z,19.40
2023-05-18T03:50:13.203Z,19.40
2023-05-18T03:52:41.574Z,19.40
2023-05-18T03:55:09.429Z,19.40
2023-05-18T03:57:36.260Z,19.40
2023-05-18T04:00:09.314Z,19.30
2023-05-18T04:02:44.158Z,19.30
2023-05-18T04:05:12.377Z,19.30
2023-05-18T04:07:44.042Z,19.30
2023-05-18T04:10:12.771Z,19.30
2023-05-18T04:12:40.840Z,19.30
2023-05-18T04:15:08.412Z,19.30
2023-05-18T04:17:35.729Z,19.30
2023-05-18T04:20:11.481Z,19.30
2023-05-18T04:22:43.232Z,19.30
2023-05-18T04:25:13.873Z,19.20
2023-05-18T04:27:42.046Z,19.20
2023-05-18T04:30:13.415Z,19.20
2023-05-18T04:32:43.067Z,19.20
2023-05-18T04:35:11.670Z,19.20
2023-05-18T04:37:42.837Z,19.20
2023-05-18T04:40:14.087Z,19.20
2023-05-18T04:42:48.487Z,19.20
2023-05-18T04:45:26.011Z,19.20
2023-05-18T04:47:54.737Z,19.20
2023-05-18T04:50:26.135Z,19.20
2023-05-18T04:52:53.475Z,19.10
2023-05-18T04:55:26.166Z,19.10
2023-05-18T04:58:00.665Z,19.10
2023-05-18T05:00:29.194Z,19.10
2023-05-18T05:02:57.371Z,19.10
2023-05-18T05:05:25.840Z,19.10
2023-05-18T05:07:53.724Z,19.10
2023-05-18T05:10:21.337Z,19.10
2023-05-18T05:12:52.066Z,19.10
2023-05-18T05:15:19.430Z,19.10
2023-05-18T05:17:49.785Z,19.00
2023-05-18T05:20:17.082Z,19.10
2023-05-18T05:22:43.968Z,19.10
2023-05-18T05:25:13.061Z,19.10
2023-05-18T05:27:40.112Z,19.00
2023-05-18T05:30:08.127Z,19.00
2023-05-18T05:32:37.224Z,19.00
2023-05-18T05:35:06.071Z,19.00
2023-05-18T05:37:33.359Z,19.00
2023-05-18T05:40:00.233Z,19.00
2023-05-18T05:42:29.961Z,19.00
2023-05-18T05:44:58.233Z,19.00
2023-05-18T05:47:26.712Z,19.00
2023-05-18T05:49:53.560Z,19.00
2023-05-18T05:52:20.605Z,18.90
2023-05-18T05:54:47.645Z,19.00
2023-05-18T05:57:15.742Z,19.00
2023-05-18T05:59:42.599Z,19.00
2023-05-18T06:02:09.436Z,18.90
2023-05-18T06:04:36.491Z,19.00
2023-05-18T06:07:03.773Z,19.00
2023-05-18T06:09:30.562Z,19.00
2023-05-18T06:11:57.454Z,18.90
2023-05-18T06:14:25.997Z,18.90
2023-05-18T06:16:53.811Z,19.00
2023-05-18T06:19:21.893Z,19.00
2023-05-18T06:21:49.674Z,18.90
2023-05-18T06:24:17.188Z,18.90
2023-05-18T06:26:53.894Z,18.90
2023-05-18T06:29:45.875Z,18.90
2023-05-18T06:32:38.903Z,18.90
2023-05-18T06:35:06.462Z,18.90
2023-05-18T06:37:33.804Z,18.90
2023-05-18T06:40:00.729Z,18.90
2023-05-18T06:42:27.550Z,18.90
2023-05-18T06:45:07.351Z,18.90
2023-05-18T06:47:52.579Z,18.90
2023-05-18T06:50:19.623Z,18.90
2023-05-18T06:52:46.490Z,18.90
2023-05-18T06:55:13.434Z,18.90
2023-05-18T06:57:40.181Z,18.90
2023-05-18T07:00:08.938Z,18.80
2023-05-18T07:02:36.116Z,18.80
2023-05-18T07:05:05.576Z,18.70
2023-05-18T07:07:32.386Z,18.70
2023-05-18T07:09:59.335Z,18.80
2023-05-18T07:12:26.832Z,18.70
2023-05-18T07:14:53.592Z,18.70
2023-05-18T07:17:20.289Z,18.80
2023-05-18T07:19:47.062Z,18.80
2023-05-18T07:22:13.777Z,18.70
2023-05-18T07:24:40.516Z,18.70
2023-05-18T07:27:07.277Z,18.70
2023-05-18T07:29:34.319Z,18.80
2023-05-18T07:32:01.147Z,18.80
2023-05-18T07:34:28.201Z,18.80
2023-05-18T07:36:54.957Z,18.80
2023-05-18T07:39:28.362Z,18.80
2023-05-18T07:41:56.219Z,18.80
2023-05-18T07:44:23.022Z,18.80
2023-05-18T07:46:49.962Z,18.80
2023-05-18T07:49:16.782Z,18.80
2023-05-18T07:51:43.560Z,18.80
2023-05-18T07:54:10.352Z,18.80
2023-05-18T07:56:37.064Z,18.90
2023-05-18T07:59:03.835Z,18.90
2023-05-18T08:01:32.074Z,18.80
2023-05-18T08:03:59.057Z,18.80
2023-05-18T08:06:26.088Z,18.80
2023-05-18T08:08:52.969Z,18.90
2023-05-18T08:11:19.752Z,18.90
2023-05-18T08:13:46.452Z,18.90
2023-05-18T08:16:13.362Z,18.90
2023-05-18T08:18:40.511Z,18.90
2023-05-18T08:21:10.396Z,18.90
2023-05-18T08:23:37.623Z,18.90
2023-05-18T08:26:04.679Z,18.90
2023-05-18T08:28:32.204Z,18.90
2023-05-18T08:30:58.950Z,18.90
2023-05-18T08:33:25.987Z,18.90
2023-05-18T08:35:53.540Z,18.90
2023-05-18T08:38:20.471Z,18.90
2023-05-18T08:40:56.022Z,19.00
2023-05-18T08:43:30.061Z,18.90
2023-05-18T08:46:25.685Z,19.00
2023-05-18T08:48:53.763Z,18.90
2023-05-18T08:51:21.815Z,19.00
2023-05-18T08:53:53.807Z,18.90
2023-05-18T08:56:23.515Z,18.90
2023-05-18T08:58:52.334Z,18.90
2023-05-18T09:01:19.468Z,19.00
2023-05-18T09:03:49.337Z,18.90
2023-05-18T09:06:16.929Z,18.90
2023-05-18T09:08:45.416Z,19.00
2023-05-18T09:11:13.637Z,19.00
2023-05-18T09:13:40.513Z,19.00
2023-05-18T09:16:08.175Z,19.00
2023-05-18T09:18:35.375Z,19.00
2023-05-18T09:21:02.691Z,19.00
2023-05-18T09:23:30.511Z,19.00
2023-05-18T09:25:59.446Z,19.00
2023-05-18T09:28:40.694Z,19.00
2023-05-18T09:31:12.808Z,19.00
2023-05-18T09:33:40.612Z,19.00
2023-05-18T09:36:09.287Z,19.00
2023-05-18T09:38:38.306Z,19.00
2023-05-18T09:41:11.197Z,19.00
2023-05-18T09:43:38.337Z,19.00
2023-05-18T09:46:09.058Z,19.00
2023-05-18T09:48:56.080Z,19.00
2023-05-18T09:51:25.222Z,19.00
2023-05-18T09:53:57.579Z,19.10
2023-05-18T09:56:26.896Z,19.00
2023-05-18T09:58:54.013Z,19.00
2023-05-18T10:01:21.094Z,19.00
2023-05-18T10:03:49.667Z,19.00
2023-05-18T10:06:21.281Z,19.10
2023-05-18T10:08:48.501Z,19.00
2023-05-18T10:11:21.710Z,19.00
2023-05-18T10:13:53.517Z,19.00
2023-05-18T10:16:20.546Z,19.10
2023-05-18T10:18:48.240Z,19.00
2023-05-18T10:21:16.783Z,19.00
2023-05-18T10:23:46.541Z,19.00
2023-05-18T10:26:16.308Z,19.10
2023-05-18T10:28:45.209Z,19.10
2023-05-18T10:31:15.430Z,19.10
2023-05-18T10:33:43.647Z,19.10
2023-05-18T10:36:11.245Z,19.10
2023-05-18T10:38:43.299Z,19.10
2023-05-18T10:41:11.581Z,19.10
2023-05-18T10:43:41.010Z,19.10
2023-05-18T10:46:08.666Z,19.10
2023-05-18T10:48:40.138Z,19.10
2023-05-18T10:51:08.216Z,19.10
2023-05-18T10:53:36.428Z,19.10
2023-05-18T10:56:03.589Z,19.10
2023-05-18T10:58:31.647Z,19.10
2023-05-18T11:01:01.224Z,19.20
2023-05-18T11:03:28.657Z,19.10
2023-05-18T11:06:10.916Z,19.20
2023-05-18T11:08:51.119Z,19.10
2023-05-18T11:11:19.524Z,19.20
2023-05-18T11:13:51.273Z,19.10
2023-05-18T11:16:19.854Z,19.10
2023-05-18T11:18:51.962Z,19.10
2023-05-18T11:21:20.579Z,19.10
2023-05-18T11:24:33.567Z,19.10
2023-05-18T11:27:13.820Z,19.20
2023-05-18T11:29:42.182Z,19.10
2023-05-18T11:32:30.636Z,19.10
2023-05-18T11:34:58.626Z,19.20
2023-05-18T11:37:41.165Z,19.10
2023-05-18T11:40:13.570Z,19.10
2023-05-18T11:42:40.596Z,19.20
2023-05-18T11:45:08.914Z,19.20
2023-05-18T11:47:37.841Z,19.20
2023-05-18T11:50:08.248Z,19.20
2023-05-18T11:52:47.192Z,19.10
2023-05-18T11:55:16.282Z,19.20
2023-05-18T11:57:45.396Z,19.10
2023-05-18T12:00:13.211Z,19.10
2023-05-18T12:02:44.410Z,19.10
2023-05-18T12:05:11.623Z,19.20
2023-05-18T12:07:39.507Z,19.20
2023-05-18T12:10:11.477Z,19.10
2023-05-18T12:12:40.023Z,19.20
2023-05-18T12:15:11.459Z,19.10
2023-05-18T12:17:45.809Z,19.20
2023-05-18T12:20:14.503Z,19.20
2023-05-18T12:22:46.643Z,19.20
2023-05-18T12:25:13.366Z,19.20
2023-05-18T12:27:41.856Z,19.20
2023-05-18T12:30:12.167Z,19.20
2023-05-18T12:32:39.361Z,19.20
2023-05-18T12:35:08.630Z,19.20
2023-05-18T12:37:45.178Z,19.20
2023-05-18T12:40:17.632Z,19.20
2023-05-18T12:42:54.935Z,19.20
2023-05-18T12:45:24.037Z,19.20
2023-05-18T12:47:55.517Z,19.20
2023-05-18T12:50:24.837Z,19.10
2023-05-18T12:52:52.176Z,19.20
2023-05-18T12:55:23.182Z,19.20
2023-05-18T12:58:04.198Z,19.20
2023-05-18T13:00:35.443Z,19.20
2023-05-18T13:03:13.535Z,19.20
2023-05-18T13:05:44.124Z,19.20
2023-05-18T13:08:22.139Z,19.20
2023-05-18T13:10:58.153Z,19.20
2023-05-18T13:13:28.633Z,19.20
2023-05-18T13:15:55.468Z,19.20
2023-05-18T13:18:22.517Z,19.20
2023-05-18T13:20:51.603Z,19.20
2023-05-18T13:23:21.075Z,19.20
2023-05-18T13:25:48.058Z,19.20
2023-05-18T13:28:18.098Z,19.20
2023-05-18T13:30:47.093Z,19.20
2023-05-18T13:33:14.483Z,19.20
2023-05-18T13:35:42.918Z,19.30
2023-05-18T13:38:14.147Z,19.20
2023-05-18T13:40:42.848Z,19.30
2023-05-18T13:43:11.237Z,19.20
2023-05-18T13:45:39.984Z,19.30
2023-05-18T13:48:09.645Z,19.30
2023-05-18T13:50:38.129Z,19.30
2023-05-18T13:53:05.022Z,19.30
2023-05-18T13:55:33.253Z,19.30
2023-05-18T13:58:00.962Z,19.30
2023-05-18T14:00:28.463Z,19.30
2023-05-18T14:02:56.483Z,19.30
2023-05-18T14:05:23.816Z,19.30
2023-05-18T14:07:52.511Z,19.30
2023-05-18T14:10:19.781Z,19.30
2023-05-18T14:12:47.062Z,19.30
2023-05-18T14:15:14.754Z,19.40
2023-05-18T14:17:42.893Z,19.30
2023-05-18T14:20:10.696Z,19.30
2023-05-18T14:22:37.521Z,19.30
2023-05-18T14:25:04.710Z,19.40
2023-05-18T14:27:31.951Z,19.40
2023-05-18T14:29:58.687Z,19.40
2023-05-18T14:32:25.520Z,19.40
2023-05-18T14:34:55.336Z,19.40
2023-05-18T14:37:22.245Z,19.40
2023-05-18T14:39:49.036Z,19.40
2023-05-18T14:42:15.922Z,19.50
2023-05-18T14:44:42.750Z,19.50
2023-05-18T14:47:10.448Z,19.40
2023-05-18T14:49:37.849Z,19.40
2023-05-18T14:52:05.046Z,19.50
2023-05-18T14:54:31.805Z,19.50
2023-05-18T14:56:59.602Z,19.50
2023-05-18T14:59:26.370Z,19.50
2023-05-18T15:01:53.243Z,19.50
2023-05-18T15:04:21.752Z,19.50
2023-05-18T15:06:49.618Z,19.60
2023-05-18T15:09:16.647Z,19.60
2023-05-18T15:11:43.410Z,19.60
2023-05-18T15:14:10.238Z,19.60
2023-05-18T15:16:37.218Z,19.60
2023-05-18T15:19:05.191Z,19.60
2023-05-18T15:21:32.030Z,19.60
2023-05-18T15:23:58.826Z,19.70
2023-05-18T15:26:26.111Z,19.70
2023-05-18T15:28:53.057Z,19.70
2023-05-18T15:31:20.027Z,19.70
2023-05-18T15:33:46.958Z,19.70
2023-05-18T15:36:13.973Z,19.70
2023-05-18T15:38:41.010Z,19.80
2023-05-18T15:41:07.969Z,19.80
2023-05-18T15:43:36.515Z,19.80
2023-05-18T15:46:03.484Z,19.80
2023-05-18T15:48:30.469Z,19.80
2023-05-18T15:50:57.365Z,19.80
2023-05-18T15:53:24.218Z,19.80
2023-05-18T15:55:57.472Z,19.80
2023-05-18T15:58:25.425Z,19.90
2023-05-18T16:00:52.384Z,19.80
2023-05-18T16:03:19.482Z,19.90
2023-05-18T16:05:46.571Z,19.80
2023-05-18T16:08:13.459Z,19.80
2023-05-18T16:10:40.331Z,19.80
2023-05-18T16:13:07.211Z,19.80
2023-05-18T16:15:34.849Z,19.80
2023-05-18T16:18:02.102Z,19.80
2023-05-18T16:20:29.412Z,19.80
2023-05-18T16:22:56.472Z,19.90
2023-05-18T16:25:23.996Z,19.90
2023-05-18T16:27:50.864Z,19.80
2023-05-18T16:30:17.992Z,19.80
2023-05-18T16:32:44.985Z,19.90
2023-05-18T16:35:12.250Z,19.90
2023-05-18T16:37:39.340Z,19.90
2023-05-18T16:40:07.147Z,19.90
2023-05-18T16:42:34.341Z,19.90
2023-05-18T16:45:01.537Z,19.90
2023-05-18T16:47:28.619Z,19.90
2023-05-18T16:49:55.541Z,19.90
2023-05-18T16:52:22.329Z,20.00
2023-05-18T16:54:49.080Z,20.00
2023-05-18T16:57:15.911Z,20.00
2023-05-18T16:59:42.738Z,19.90
2023-05-18T17:02:17.364Z,20.00
2023-05-18T17:04:49.508Z,20.00
2023-05-18T17:07:16.558Z,20.00
2023-05-18T17:09:43.711Z,20.00
2023-05-18T17:12:11.295Z,20.00
2023-05-18T17:14:38.330Z,20.00
2023-05-18T17:17:06.511Z,20.00
2023-05-18T17:19:34.916Z,20.10
2023-05-18T17:22:02.879Z,20.00
2023-05-18T17:24:29.684Z,20.10
2023-05-18T17:26:56.460Z,20.10
2023-05-18T17:29:23.491Z,20.10
2023-05-18T17:31:50.256Z,20.10
2023-05-18T17:34:17.084Z,20.10
2023-05-18T17:36:45.234Z,20.20
2023-05-18T17:39:12.605Z,20.20
2023-05-18T17:41:39.326Z,20.20
2023-05-18T17:44:06.126Z,20.20
2023-05-18T17:46:33.111Z,20.30
2023-05-18T17:49:01.964Z,20.30
2023-05-18T17:51:28.786Z,20.30
2023-05-18T17:53:56.533Z,20.30
2023-05-18T17:56:24.828Z,20.30
2023-05-18T17:58:53.166Z,20.40
2023-05-18T18:01:20.210Z,20.40
2023-05-18T18:03:48.483Z,20.40
2023-05-18T18:06:17.661Z,20.50
2023-05-18T18:08:44.958Z,20.50
2023-05-18T18:11:11.789Z,20.50
2023-05-18T18:13:38.556Z,20.50
2023-05-18T18:16:05.877Z,20.60
2023-05-18T18:18:32.985Z,20.60
2023-05-18T18:20:59.836Z,20.60
2023-05-18T18:23:26.677Z,20.60
2023-05-18T18:25:53.659Z,20.60
2023-05-18T18:28:20.534Z,20.70
2023-05-18T18:30:47.524Z,20.70
2023-05-18T18:33:14.577Z,20.70
2023-05-18T18:35:42.869Z,20.70
2023-05-18T18:38:09.697Z,20.70
2023-05-18T18:40:36.493Z,20.70
2023-05-18T18:43:03.224Z,20.70
2023-05-18T18:45:31.771Z,20.80
2023-05-18T18:47:59.244Z,20.80
2023-05-18T18:50:27.277Z,20.80
2023-05-18T18:52:54.285Z,20.80
2023-05-18T18:55:22.819Z,20.80
2023-05-18T18:57:49.791Z,20.80
2023-05-18T19:00:21.257Z,20.80
2023-05-18T19:02:48.098Z,20.80
2023-05-18T19:05:21.323Z,20.80
2023-05-18T19:07:49.356Z,20.80
2023-05-18T19:10:16.658Z,20.80
2023-05-18T19:12:43.758Z,20.80
2023-05-18T19:15:13.278Z,20.80
2023-05-18T19:17:41.286Z,20.80
2023-05-18T19:20:09.185Z,20.80
2023-05-18T19:22:36.079Z,20.80
2023-05-18T19:25:02.877Z,20.80
2023-05-18T19:27:29.578Z,20.80
2023-05-18T19:29:56.301Z,20.80
2023-05-18T19:32:23.207Z,20.80
2023-05-18T19:34:50.026Z,20.80
2023-05-18T19:37:16.776Z,20.80
2023-05-18T19:39:43.792Z,20.80
2023-05-18T19:42:13.665Z,20.80
2023-05-18T19:44:40.657Z,20.80
2023-05-18T19:47:07.586Z,20.80
2023-05-18T19:49:34.473Z,20.80
2023-05-18T19:52:01.663Z,20.80
2023-05-18T19:54:28.455Z,20.80
2023-05-18T19:56:55.674Z,20.80
2023-05-18T19:59:22.730Z,20.80
2023-05-18T20:01:51.082Z,20.80
2023-05-18T20:04:19.864Z,20.80
2023-05-18T20:06:46.810Z,20.80
2023-05-18T20:09:13.606Z,20.80
2023-05-18T20:11:40.457Z,20.80
2023-05-18T20:14:07.229Z,20.80
2023-05-18T20:16:36.525Z,20.80
2023-05-18T20:19:04.398Z,20.80
2023-05-18T20:21:31.952Z,20.80
2023-05-18T20:23:59.314Z,20.70
2023-05-18T20:26:28.470Z,20.70
2023-05-18T20:28:56.617Z,20.70
2023-05-18T20:31:23.472Z,20.70
2023-05-18T20:33:50.488Z,20.70
2023-05-18T20:36:17.468Z,20.70
2023-05-18T20:38:44.343Z,20.70
2023-05-18T20:41:11.177Z,20.70
2023-05-18T20:43:38.297Z,20.70
2023-05-18T20:46:05.715Z,20.60
2023-05-18T20:48:32.712Z,20.60
2023-05-18T20:50:59.506Z,20.60
2023-05-18T20:53:26.300Z,20.60
2023-05-18T20:55:54.114Z,20.60
2023-05-18T20:58:21.395Z,20.60
2023-05-18T21:00:49.636Z,20.60
2023-05-18T21:03:18.219Z,20.60
2023-05-18T21:05:45.084Z,20.60
2023-05-18T21:08:11.812Z,20.60
2023-05-18T21:10:38.774Z,20.60
2023-05-18T21:13:05.529Z,20.50
2023-05-18T21:15:36.398Z,20.60
2023-05-18T21:18:03.967Z,20.50
2023-05-18T21:20:32.363Z,20.50
2023-05-18T21:22:59.284Z,20.50
2023-05-18T21:25:26.243Z,20.50
2023-05-18T21:27:53.000Z,20.50
2023-05-18T21:30:19.817Z,20.50
2023-05-18T21:32:48.015Z,20.50
2023-05-18T21:35:15.354Z,20.50
2023-05-18T21:37:42.171Z,20.40
2023-05-18T21:40:09.645Z,20.50
2023-05-18T21:42:44.649Z,20.40
2023-05-18T21:45:14.477Z,20.40
2023-05-18T21:47:41.338Z,20.40
2023-05-18T21:50:08.797Z,20.40
2023-05-18T21:52:35.629Z,20.40
2023-05-18T21:55:02.440Z,20.30
2023-05-18T21:57:29.182Z,20.30
2023-05-18T21:59:55.878Z,20.30
2023-05-18T22:02:22.791Z,20.30
2023-05-18T22:04:49.590Z,20.30
2023-05-18T22:07:16.414Z,20.30
2023-05-18T22:09:43.144Z,20.30
2023-05-18T22:12:09.950Z,20.30
2023-05-18T22:14:36.697Z,20.30
2023-05-18T22:17:05.072Z,20.30
2023-05-18T22:19:31.969Z,20.20
2023-05-18T22:22:00.861Z,20.20
2023-05-18T22:24:28.211Z,20.20
2023-05-18T22:26:54.970Z,20.20
2023-05-18T22:29:21.762Z,20.20
2023-05-18T22:31:48.633Z,20.20
2023-05-18T22:34:15.483Z,20.10
2023-05-18T22:36:42.237Z,20.10
2023-05-18T22:39:08.955Z,20.10
2023-05-18T22:41:35.728Z,20.10
2023-05-18T22:44:02.461Z,20.10
2023-05-18T22:46:29.399Z,20.10
2023-05-18T22:48:56.134Z,20.10
2023-05-18T22:51:23.409Z,20.10
2023-05-18T22:53:50.127Z,20.10
2023-05-18T22:56:22.325Z,20.10
2023-05-18T22:58:49.106Z,20.00
2023-05-18T23:01:16.443Z,20.00
2023-05-18T23:03:43.214Z,20.00
2023-05-18T23:06:09.942Z,20.00
2023-05-18T23:08:36.996Z,20.00
2023-05-18T23:11:05.730Z,20.00
2023-05-18T23:13:33.130Z,20.00
2023-05-18T23:16:00.954Z,20.00
2023-05-18T23:18:28.171Z,19.90
2023-05-18T23:20:55.834Z,19.90
2023-05-18T23:23:28.623Z,19.90
2023-05-18T23:25:55.466Z,19.90
2023-05-18T23:28:22.182Z,19.90
2023-05-18T23:30:48.964Z,19.90
2023-05-18T23:33:16.425Z,19.90
2023-05-18T23:35:46.436Z,19.90
2023-05-18T23:38:18.339Z,19.90
2023-05-18T23:40:45.781Z,19.90
2023-05-18T23:43:12.937Z,19.80
2023-05-18T23:45:39.831Z,19.90
2023-05-18T23:48:07.137Z,19.90
2023-05-18T23:50:34.272Z,19.80
2023-05-18T23:53:03.428Z,19.80
2023-05-18T23:55:32.041Z,19.80
2023-05-18T23:57:59.305Z,19.80
